createdAt,value
2023-06-11T00:00:49.298Z,45.86
2023-06-11T00:05:52.831Z,45.62
2023-06-11T00:10:56.706Z,45.76
2023-06-11T00:16:03.016Z,46.00
2023-06-11T00:21:16.813Z,45.96
2023-06-11T00:26:23.674Z,45.93
2023-06-11T00:31:28.186Z,46.18
2023-06-11T00:36:33.741Z,46.32
2023-06-11T00:41:40.245Z,46.38
2023-06-11T00:46:53.520Z,46.45
2023-06-11T00:51:55.290Z,46.66
2023-06-11T00:57:05.531Z,46.44
2023-06-11T01:02:38.782Z,46.57
2023-06-11T01:07:52.543Z,46.81
2023-06-11T01:13:33.176Z,46.58
2023-06-11T01:18:46.739Z,46.87
2023-06-11T01:24:08.679Z,47.05
2023-06-11T01:29:16.177Z,47.08
2023-06-11T01:34:21.653Z,47.01
2023-06-11T01:39:27.381Z,47.06
2023-06-11T01:44:38.992Z,47.19
2023-06-11T01:49:40.964Z,47.33
2023-06-11T01:54:47.177Z,47.18
2023-06-11T01:59:54.789Z,47.55
2023-06-11T02:04:56.354Z,47.62
2023-06-11T02:10:00.336Z,47.78
2023-06-11T02:15:08.292Z,47.61
2023-06-11T02:20:13.239Z,47.57
2023-06-11T02:25:15.177Z,47.56
2023-06-11T02:30:19.160Z,47.74
2023-06-11T02:35:28.619Z,47.95
2023-06-11T02:40:38.217Z,48.25
2023-06-11T02:45:45.841Z,48.13
2023-06-11T02:50:49.994Z,48.33
2023-06-11T02:55:53.784Z,48.11
2023-06-11T03:00:55.610Z,48.33
2023-06-11T03:06:08.869Z,48.33
2023-06-11T03:11:13.066Z,48.54
2023-06-11T03:16:21.782Z,48.50
2023-06-11T03:21:31.234Z,48.47
2023-06-11T03:26:33.094Z,48.51
2023-06-11T03:31:35.040Z,48.73
2023-06-11T03:36:39.052Z,48.74
2023-06-11T03:41:53.682Z,48.80
2023-06-11T03:47:06.584Z,49.04
2023-06-11T03:52:14.400Z,49.17
2023-06-11T03:57:22.281Z,49.34
2023-06-11T04:02:30.723Z,49.25
2023-06-11T04:07:44.499Z,49.51
2023-06-11T04:12:48.891Z,49.63
2023-06-11T04:17:54.020Z,49.58
2023-06-11T04:23:15.309Z,49.85
2023-06-11T04:28:18.239Z,49.85
2023-06-11T04:33:23.668Z,49.98
2023-06-11T04:38:26.873Z,50.13
2023-06-11T04:43:34.483Z,50.19
2023-06-11T04:48:46.758Z,50.40
2023-06-11T04:53:48.406Z,50.55
2023-06-11T04:58:55.244Z,50.39
2023-06-11T05:04:02.439Z,50.63
2023-06-11T05:09:04.689Z,50.45
2023-06-11T05:14:08.188Z,50.37
2023-06-11T05:19:12.215Z,50.43
2023-06-11T05:24:21.194Z,50.38
2023-06-11T05:29:28.979Z,50.36
2023-06-11T05:34:35.488Z,50.54
2023-06-11T05:39:42.706Z,50.69
2023-06-11T05:44:44.774Z,50.42
2023-06-11T05:49:51.599Z,50.23
2023-06-11T05:54:57.078Z,50.23
2023-06-11T06:00:02.244Z,50.25
2023-06-11T06:05:08.447Z,50.08
2023-06-11T06:10:11.065Z,50.09
2023-06-11T06:15:17.778Z,49.89
2023-06-11T06:20:23.943Z,49.84
2023-06-11T06:25:30.157Z,50.02
2023-06-11T06:30:39.845Z,49.98
2023-06-11T06:35:44.936Z,49.79
2023-06-11T06:40:50.418Z,49.63
2023-06-11T06:45:52.043Z,49.54
2023-06-11T06:51:00.471Z,49.72
2023-06-11T06:56:03.138Z,49.49
2023-06-11T07:01:10.725Z,49.66
2023-06-11T07:06:19.533Z,49.60
2023-06-11T07:11:24.665Z,49.55
2023-06-11T07:16:32.452Z,49.64
2023-06-11T07:21:38.800Z,49.41
2023-06-11T07:26:42.997Z,48.22
2023-06-11T07:31:50.833Z,48.31
2023-06-11T07:36:55.718Z,47.97
2023-06-11T07:42:01.582Z,47.56
2023-06-11T07:47:03.678Z,47.71
2023-06-11T07:52:06.077Z,47.61
2023-06-11T07:57:12.366Z,47.05
2023-06-11T08:02:16.382Z,46.99
2023-06-11T08:07:30.546Z,46.49
2023-06-11T08:12:34.358Z,46.03
2023-06-11T08:17:37.110Z,45.89
2023-06-11T08:22:40.764Z,44.86
2023-06-11T08:27:47.132Z,44.97
2023-06-11T08:32:48.755Z,44.79
2023-06-11T08:37:58.529Z,44.16
2023-06-11T08:43:02.756Z,44.03
2023-06-11T08:48:10.978Z,43.06
2023-06-11T08:53:15.116Z,42.75
2023-06-11T08:58:17.062Z,42.79
2023-06-11T09:03:23.337Z,41.86
2023-06-11T09:08:25.000Z,41.26
2023-06-11T09:13:31.382Z,40.57
2023-06-11T09:18:45.443Z,40.61
2023-06-11T09:23:49.082Z,40.59
2023-06-11T09:28:55.657Z,40.37
2023-06-11T09:34:07.140Z,40.00
2023-06-11T09:39:17.872Z,39.20
2023-06-11T09:44:20.433Z,39.51
2023-06-11T09:49:23.772Z,39.33
2023-06-11T09:54:28.360Z,39.18
2023-06-11T09:59:31.172Z,38.77
2023-06-11T10:04:32.696Z,38.25
2023-06-11T10:09:44.173Z,37.93
2023-06-11T10:14:56.156Z,37.71
2023-06-11T10:19:57.837Z,37.41
2023-06-11T10:25:08.325Z,37.33
2023-06-11T10:30:26.827Z,37.29
2023-06-11T10:35:35.056Z,36.93
2023-06-11T10:40:38.829Z,36.53
2023-06-11T10:45:42.695Z,36.48
2023-06-11T10:50:46.540Z,36.34
2023-06-11T10:55:51.677Z,36.18
2023-06-11T11:01:01.910Z,35.94
2023-06-11T11:06:10.763Z,36.13
2023-06-11T11:11:14.657Z,35.20
2023-06-11T11:16:16.856Z,34.54
2023-06-11T11:21:29.852Z,34.41
2023-06-11T11:26:42.680Z,34.77
2023-06-11T11:31:47.413Z,34.12
2023-06-11T11:36:51.914Z,33.64
2023-06-11T11:41:55.598Z,32.57
2023-06-11T11:47:04.294Z,32.33
2023-06-11T11:52:18.741Z,32.97
2023-06-11T11:57:26.772Z,32.08
2023-06-11T12:02:33.688Z,31.73
2023-06-11T12:07:37.627Z,30.90
2023-06-11T12:12:39.140Z,31.26
2023-06-11T12:17:45.194Z,31.49
2023-06-11T12:22:49.756Z,30.80
2023-06-11T12:27:53.604Z,30.29
2023-06-11T12:32:57.577Z,30.37
2023-06-11T12:37:59.465Z,30.32
2023-06-11T12:43:08.250Z,30.24
2023-06-11T12:48:12.968Z,28.86
2023-06-11T12:53:14.632Z,28.26
2023-06-11T12:58:28.142Z,28.61
2023-06-11T13:03:30.911Z,27.83
2023-06-11T13:08:43.877Z,28.34
2023-06-11T13:13:51.887Z,27.79
2023-06-11T13:19:00.739Z,26.98
2023-06-11T13:24:04.480Z,26.63
2023-06-11T13:29:10.925Z,26.46
2023-06-11T13:34:12.498Z,26.47
2023-06-11T13:39:18.231Z,25.84
2023-06-11T13:44:26.219Z,26.08
2023-06-11T13:49:30.207Z,25.75
2023-06-11T13:54:37.090Z,25.40
2023-06-11T13:59:41.048Z,25.61
2023-06-11T14:04:46.836Z,25.23
2023-06-11T14:09:54.937Z,25.60
2023-06-11T14:15:02.654Z,24.96
2023-06-11T14:20:07.281Z,25.37
2023-06-11T14:25:12.870Z,25.00
2023-06-11T14:30:18.079Z,24.59
2023-06-11T14:35:22.842Z,24.53
2023-06-11T14:40:25.821Z,24.83
2023-06-11T14:45:30.878Z,24.88
2023-06-11T14:50:37.899Z,24.76
2023-06-11T14:55:41.814Z,23.92
2023-06-11T15:00:47.230Z,23.84
2023-06-11T15:05:57.044Z,24.28
2023-06-11T15:10:58.611Z,23.13
2023-06-11T15:16:02.475Z,23.09
2023-06-11T15:21:09.301Z,23.28
2023-06-11T15:26:13.249Z,22.99
2023-06-11T15:31:23.274Z,22.79
2023-06-11T15:36:27.160Z,22.72
2023-06-11T15:41:31.152Z,22.71
2023-06-11T15:46:33.702Z,22.48
2023-06-11T15:51:41.377Z,22.34
2023-06-11T15:56:48.704Z,22.20
2023-06-11T16:01:56.084Z,22.19
2023-06-11T16:07:07.642Z,22.32
2023-06-11T16:12:11.596Z,22.56
2023-06-11T16:17:13.133Z,22.51
2023-06-11T16:22:24.220Z,22.18
2023-06-11T16:27:28.079Z,22.40
2023-06-11T16:32:35.650Z,22.52
2023-06-11T16:37:41.482Z,22.45
2023-06-11T16:42:45.692Z,22.50
2023-06-11T16:47:49.285Z,22.15
2023-06-11T16:52:56.515Z,22.62
2023-06-11T16:58:06.230Z,22.96
2023-06-11T17:03:10.193Z,22.86
2023-06-11T17:08:13.940Z,22.82
2023-06-11T17:13:23.076Z,23.04
2023-06-11T17:18:30.161Z,23.08
2023-06-11T17:23:41.592Z,23.22
2023-06-11T17:28:45.625Z,22.42
2023-06-11T17:33:49.488Z,22.34
2023-06-11T17:38:55.764Z,22.48
2023-06-11T17:44:07.265Z,21.98
2023-06-11T17:49:12.159Z,22.25
2023-06-11T17:54:13.703Z,22.21
2023-06-11T17:59:21.157Z,22.24
2023-06-11T18:04:23.908Z,22.26
2023-06-11T18:09:27.916Z,22.94
2023-06-11T18:14:32.243Z,22.68
2023-06-11T18:19:37.274Z,22.82
2023-06-11T18:24:46.347Z,22.75
2023-06-11T18:29:52.418Z,22.78
2023-06-11T18:34:56.109Z,22.60
2023-06-11T18:40:00.262Z,23.44
2023-06-11T18:45:04.655Z,23.28
2023-06-11T18:50:07.983Z,23.80
2023-06-11T18:55:10.101Z,23.95
2023-06-11T19:00:12.571Z,24.17
2023-06-11T19:05:15.892Z,24.51
2023-06-11T19:10:17.519Z,24.89
2023-06-11T19:15:22.608Z,24.99
2023-06-11T19:20:27.528Z,24.85
2023-06-11T19:25:40.588Z,25.54
2023-06-11T19:31:00.071Z,25.72
2023-06-11T19:36:07.110Z,26.33
2023-06-11T19:41:15.685Z,26.36
2023-06-11T19:46:27.268Z,26.43
2023-06-11T19:51:34.123Z,27.09
2023-06-11T19:56:38.096Z,26.87
2023-06-11T20:01:46.858Z,26.96
2023-06-11T20:06:58.086Z,27.15
2023-06-11T20:12:12.426Z,27.38
2023-06-11T20:17:17.725Z,27.40
2023-06-11T20:22:23.629Z,27.44
2023-06-11T20:27:27.546Z,27.55
2023-06-11T20:32:44.218Z,27.84
2023-06-11T20:37:57.959Z,27.82
2023-06-11T20:42:59.526Z,27.86
2023-06-11T20:48:03.332Z,28.01
2023-06-11T20:53:16.614Z,27.80
2023-06-11T20:58:29.907Z,28.09
2023-06-11T21:03:37.717Z,28.25
2023-06-11T21:08:41.366Z,28.50
2023-06-11T21:14:08.410Z,28.63
2023-06-11T21:19:19.580Z,28.71
2023-06-11T21:24:21.290Z,28.84
2023-06-11T21:29:28.231Z,28.63
2023-06-11T21:34:34.367Z,28.72
2023-06-11T21:39:45.760Z,29.00
2023-06-11T21:44:47.298Z,29.13
2023-06-11T21:49:48.864Z,29.04
2023-06-11T21:54:53.834Z,29.42
2023-06-11T21:59:57.807Z,29.34
2023-06-11T22:05:10.689Z,29.51
2023-06-11T22:10:19.278Z,29.64
2023-06-11T22:15:20.915Z,29.78
2023-06-11T22:20:26.338Z,30.02
2023-06-11T22:25:30.312Z,30.11
2023-06-11T22:30:38.095Z,30.30
2023-06-11T22:35:51.408Z,30.59
2023-06-11T22:40:52.932Z,30.53
2023-06-11T22:45:54.447Z,30.73
2023-06-11T22:50:58.571Z,30.85
2023-06-11T22:56:07.494Z,30.99
2023-06-11T23:01:09.022Z,30.98
2023-06-11T23:06:14.165Z,31.10
2023-06-11T23:11:19.776Z,31.31
2023-06-11T23:16:21.465Z,31.38
2023-06-11T23:21:27.355Z,31.41
2023-06-11T23:26:29.209Z,31.33
2023-06-11T23:31:36.339Z,31.81
2023-06-11T23:36:42.491Z,31.90
2023-06-11T23:41:46.165Z,32.04
2023-06-11T23:46:51.059Z,32.29
2023-06-11T23:51:56.062Z,32.25
2023-06-11T23:57:04.717Z,32.44
